Time;durP1;ratioP1;P1;durP2;ratioP2;P2;SDS_P1;SDS_P2;PMS_P1;PMS_P2;Temp;Humidity;BMP_temperature;BMP_pressure;BME280_temperature;BME280_humidity;BME280_pressure;Samples;Min_cycle;Max_cycle;Signal;HPM_P1;HPM_P2
2023/12/26 00:00:38;;;;;;;8.18;6.68;;;;;;;;;;5077382;28;20469;-45
2023/12/26 00:03:06;;;;;;;9.10;8.13;;;;;;;;;;5076541;28;20032;-47
2023/12/26 00:05:32;;;;;;;11.93;10.05;;;;;;;;;;5074639;28;20158;-45
2023/12/26 00:07:58;;;;;;;8.55;7.22;;;;;;;;;;5074154;28;20140;-46
2023/12/26 00:10:23;;;;;;;9.88;7.22;;;;;;;;;;5069999;28;20123;-46
2023/12/26 00:12:49;;;;;;;9.82;7.57;;;;;;;;;;5073782;28;20043;-46
2023/12/26 00:15:14;;;;;;;10.05;6.35;;;;;;;;;;5073867;28;20040;-48
2023/12/26 00:17:40;;;;;;;8.20;6.15;;;;;;;;;;5077754;28;20032;-49
2023/12/26 00:20:07;;;;;;;7.50;6.55;;;;;;;;;;5069399;28;20045;-46
2023/12/26 00:22:34;;;;;;;8.27;6.50;;;;;;;;;;5078482;28;20024;-44
2023/12/26 00:25:00;;;;;;;8.15;6.43;;;;;;;;;;5077291;28;20036;-46
2023/12/26 00:27:25;;;;;;;8.43;6.05;;;;;;;;;;5073406;28;20028;-44
2023/12/26 00:29:51;;;;;;;9.40;7.13;;;;;;;;;;5078915;28;20489;-45
2023/12/26 00:32:17;;;;;;;9.27;6.30;;;;;;;;;;5078469;28;20024;-47
2023/12/26 00:34:42;;;;;;;11.90;7.85;;;;;;;;;;5077686;28;20122;-45
2023/12/26 00:37:09;;;;;;;11.75;10.50;;;;;;;;;;5072793;28;20040;-46
2023/12/26 00:39:34;;;;;;;11.45;10.35;;;;;;;;;;5076355;28;20130;-46
2023/12/26 00:42:00;;;;;;;13.77;11.35;;;;;;;;;;5076645;28;20032;-46
2023/12/26 00:44:25;;;;;;;13.43;10.00;;;;;;;;;;5076195;28;20039;-46
2023/12/26 00:46:51;;;;;;;8.50;7.60;;;;;;;;;;5075381;28;20451;-46
2023/12/26 00:49:16;;;;;;;16.95;11.55;;;;;;;;;;5076942;28;20712;-44
2023/12/26 00:51:41;;;;;;;11.55;8.15;;;;;;;;;;5075811;28;20033;-45
2023/12/26 00:54:07;;;;;;;8.63;6.63;;;;;;;;;;5070999;28;20502;-46
2023/12/26 00:56:32;;;;;;;8.55;7.05;;;;;;;;;;5081068;28;20031;-47
2023/12/26 00:58:57;;;;;;;8.65;6.47;;;;;;;;;;5076372;28;20028;-45
2023/12/26 01:01:23;;;;;;;10.75;7.85;;;;;;;;;;5084544;28;20032;-44
2023/12/26 01:03:48;;;;;;;8.95;7.75;;;;;;;;;;5079531;28;20040;-45
2023/12/26 01:06:16;;;;;;;9.75;7.15;;;;;;;;;;5073213;28;20036;-43
2023/12/26 01:08:42;;;;;;;10.13;7.70;;;;;;;;;;5071907;28;20041;-44
2023/12/26 01:11:09;;;;;;;9.93;8.15;;;;;;;;;;5075317;28;20605;-48
2023/12/26 01:13:35;;;;;;;11.75;7.80;;;;;;;;;;5088600;28;20025;-44
2023/12/26 01:16:02;;;;;;;8.40;6.57;;;;;;;;;;5087485;28;20749;-44
2023/12/26 01:18:28;;;;;;;12.32;7.45;;;;;;;;;;5084926;28;20032;-45
2023/12/26 01:20:54;;;;;;;9.18;7.50;;;;;;;;;;5084417;28;20040;-48
2023/12/26 01:23:19;;;;;;;11.65;8.55;;;;;;;;;;5077540;28;20024;-46
2023/12/26 01:25:45;;;;;;;15.07;10.15;;;;;;;;;;5082878;28;20035;-45
2023/12/26 01:28:10;;;;;;;9.95;6.25;;;;;;;;;;5071462;28;20033;-45
2023/12/26 01:30:38;;;;;;;11.85;7.97;;;;;;;;;;5083542;28;20104;-44
2023/12/26 01:33:04;;;;;;;12.02;7.18;;;;;;;;;;5077541;28;20421;-45
2023/12/26 01:35:29;;;;;;;10.15;8.13;;;;;;;;;;5093211;28;20082;-44
2023/12/26 01:37:56;;;;;;;11.75;7.55;;;;;;;;;;5075226;28;20025;-44
2023/12/26 01:40:21;;;;;;;6.72;5.65;;;;;;;;;;5077010;28;20032;-45
2023/12/26 01:42:47;;;;;;;11.35;6.90;;;;;;;;;;5079839;28;20676;-48
2023/12/26 01:45:13;;;;;;;8.60;5.55;;;;;;;;;;5078724;28;20665;-46
2023/12/26 01:47:39;;;;;;;8.48;6.05;;;;;;;;;;5084723;28;20021;-44
2023/12/26 01:50:06;;;;;;;6.28;5.63;;;;;;;;;;5076739;28;20503;-47
2023/12/26 01:52:31;;;;;;;5.63;4.75;;;;;;;;;;5079001;28;20090;-43
2023/12/26 01:54:57;;;;;;;9.73;6.47;;;;;;;;;;5075228;28;20048;-46
2023/12/26 01:57:22;;;;;;;7.75;5.55;;;;;;;;;;5079728;28;20032;-45
2023/12/26 01:59:48;;;;;;;8.75;6.10;;;;;;;;;;5075448;28;20044;-45
2023/12/26 02:02:14;;;;;;;7.45;6.25;;;;;;;;;;5093510;28;20386;-45
2023/12/26 02:04:40;;;;;;;6.13;5.53;;;;;;;;;;5079156;28;20036;-45
2023/12/26 02:07:06;;;;;;;7.50;5.13;;;;;;;;;;5087161;28;20020;-44
2023/12/26 02:09:32;;;;;;;6.03;4.88;;;;;;;;;;5072488;28;20703;-46
2023/12/26 02:11:57;;;;;;;7.75;5.70;;;;;;;;;;5084747;28;20232;-45
2023/12/26 02:14:23;;;;;;;8.13;6.28;;;;;;;;;;5079061;28;20037;-48
2023/12/26 02:16:52;;;;;;;7.63;6.10;;;;;;;;;;5081933;28;20032;-44
2023/12/26 02:19:17;;;;;;;7.72;5.28;;;;;;;;;;5076183;28;20102;-44
2023/12/26 02:21:42;;;;;;;7.38;5.70;;;;;;;;;;5072867;28;20025;-47
2023/12/26 02:24:08;;;;;;;7.10;5.60;;;;;;;;;;5086474;28;20032;-45
2023/12/26 02:26:37;;;;;;;6.82;5.38;;;;;;;;;;5078387;28;20024;-45
2023/12/26 02:29:03;;;;;;;6.07;5.40;;;;;;;;;;5072259;28;20063;-45
2023/12/26 02:31:29;;;;;;;6.78;5.25;;;;;;;;;;5078755;28;20024;-46
2023/12/26 02:33:55;;;;;;;5.53;4.25;;;;;;;;;;5073113;28;20123;-44
2023/12/26 02:36:21;;;;;;;6.38;4.72;;;;;;;;;;5057987;28;20028;-44
2023/12/26 02:38:47;;;;;;;6.88;5.00;;;;;;;;;;5075117;28;20041;-47
2023/12/26 02:41:12;;;;;;;5.38;4.00;;;;;;;;;;5078123;28;20028;-49
2023/12/26 02:43:38;;;;;;;7.43;5.68;;;;;;;;;;5076401;28;20028;-46
2023/12/26 02:46:03;;;;;;;7.43;4.38;;;;;;;;;;5078545;28;20123;-44
2023/12/26 02:48:29;;;;;;;5.90;4.22;;;;;;;;;;5076161;28;20098;-45
2023/12/26 02:50:54;;;;;;;6.40;4.63;;;;;;;;;;5073971;28;20052;-48
2023/12/26 02:53:19;;;;;;;5.15;4.45;;;;;;;;;;5068665;28;20044;-45
2023/12/26 02:55:52;;;;;;;5.82;4.35;;;;;;;;;;5069133;28;20036;-43
2023/12/26 02:58:18;;;;;;;5.05;4.43;;;;;;;;;;5070780;28;20037;-44
2023/12/26 03:00:43;;;;;;;7.55;4.75;;;;;;;;;;5071239;28;20032;-47
2023/12/26 03:03:09;;;;;;;5.97;4.22;;;;;;;;;;5063684;28;20067;-45
2023/12/26 03:05:34;;;;;;;5.28;4.60;;;;;;;;;;5075655;28;20478;-44
2023/12/26 03:07:59;;;;;;;5.43;4.22;;;;;;;;;;5082958;28;20021;-46
2023/12/26 03:10:25;;;;;;;6.03;4.70;;;;;;;;;;5076801;28;20075;-45
2023/12/26 03:12:50;;;;;;;9.93;6.95;;;;;;;;;;5076131;28;20567;-43
2023/12/26 03:15:16;;;;;;;12.57;7.13;;;;;;;;;;5074804;28;20040;-44
2023/12/26 03:17:41;;;;;;;9.30;6.55;;;;;;;;;;5078433;28;20028;-46
2023/12/26 03:20:07;;;;;;;6.43;5.07;;;;;;;;;;5083474;28;20032;-47
2023/12/26 03:22:32;;;;;;;7.50;5.82;;;;;;;;;;5072969;28;20116;-44
2023/12/26 03:24:57;;;;;;;5.35;4.70;;;;;;;;;;5075324;28;20025;-43
2023/12/26 03:27:23;;;;;;;7.70;5.15;;;;;;;;;;5074649;28;20036;-44
2023/12/26 03:29:48;;;;;;;7.15;5.05;;;;;;;;;;5072490;28;20037;-47
2023/12/26 03:32:17;;;;;;;7.95;6.00;;;;;;;;;;5082346;28;20028;-46
2023/12/26 03:34:43;;;;;;;6.45;5.18;;;;;;;;;;5073637;28;20124;-46
2023/12/26 03:37:09;;;;;;;10.52;6.20;;;;;;;;;;5072561;28;20056;-43
2023/12/26 03:39:34;;;;;;;7.03;6.32;;;;;;;;;;5073164;28;20044;-44
2023/12/26 03:42:00;;;;;;;7.38;5.18;;;;;;;;;;5077906;28;20020;-44
2023/12/26 03:44:25;;;;;;;7.28;4.72;;;;;;;;;;5077667;28;20034;-50
2023/12/26 03:46:51;;;;;;;9.88;6.63;;;;;;;;;;5067627;28;20393;-43
2023/12/26 03:49:16;;;;;;;9.90;6.15;;;;;;;;;;5087261;28;20043;-46
2023/12/26 03:51:44;;;;;;;8.80;6.10;;;;;;;;;;5067885;28;20028;-45
2023/12/26 03:54:09;;;;;;;10.82;6.50;;;;;;;;;;5086178;28;20036;-44
2023/12/26 03:56:35;;;;;;;11.68;7.65;;;;;;;;;;5075775;28;20078;-43
2023/12/26 03:59:00;;;;;;;9.15;6.72;;;;;;;;;;5078400;28;20378;-44
2023/12/26 04:01:26;;;;;;;8.10;5.13;;;;;;;;;;5075358;28;20063;-45
2023/12/26 04:03:52;;;;;;;8.55;5.60;;;;;;;;;;5073401;28;20032;-46
2023/12/26 04:06:18;;;;;;;10.73;7.85;;;;;;;;;;5081480;28;20031;-48
2023/12/26 04:08:43;;;;;;;8.48;7.07;;;;;;;;;;5076574;28;20052;-44
2023/12/26 04:11:10;;;;;;;6.88;5.30;;;;;;;;;;5082532;28;20020;-47
2023/12/26 04:13:36;;;;;;;7.10;5.80;;;;;;;;;;5082225;28;20056;-44
2023/12/26 04:16:01;;;;;;;8.93;5.97;;;;;;;;;;5077105;28;20027;-48
2023/12/26 04:18:26;;;;;;;8.45;6.75;;;;;;;;;;5071895;28;20397;-43
2023/12/26 04:20:52;;;;;;;5.85;5.22;;;;;;;;;;5078601;28;20116;-47
2023/12/26 04:23:17;;;;;;;7.03;5.05;;;;;;;;;;5084117;28;20032;-45
2023/12/26 04:25:43;;;;;;;5.43;4.15;;;;;;;;;;5079689;28;20008;-48
2023/12/26 04:28:08;;;;;;;8.90;5.07;;;;;;;;;;5080908;28;20021;-45
2023/12/26 04:30:34;;;;;;;4.68;3.92;;;;;;;;;;5089474;28;20024;-46
2023/12/26 04:32:59;;;;;;;4.75;3.90;;;;;;;;;;5077944;28;20021;-45
2023/12/26 04:35:24;;;;;;;5.38;4.88;;;;;;;;;;5082647;28;20062;-45
2023/12/26 04:37:50;;;;;;;8.15;6.07;;;;;;;;;;5081993;28;20557;-44
2023/12/26 04:40:15;;;;;;;7.32;6.30;;;;;;;;;;5075260;28;20036;-46
2023/12/26 04:42:41;;;;;;;7.47;6.25;;;;;;;;;;5080677;28;20016;-47
2023/12/26 04:45:07;;;;;;;6.65;5.93;;;;;;;;;;5078068;28;20045;-45
2023/12/26 04:47:33;;;;;;;7.68;6.20;;;;;;;;;;5079553;28;20063;-44
2023/12/26 04:49:59;;;;;;;7.07;6.25;;;;;;;;;;5080759;28;20138;-49
2023/12/26 04:52:24;;;;;;;7.18;6.47;;;;;;;;;;5079924;28;20061;-45
2023/12/26 04:54:50;;;;;;;8.85;6.07;;;;;;;;;;5079016;28;20082;-45
2023/12/26 04:57:15;;;;;;;6.50;5.80;;;;;;;;;;5085800;28;20036;-44
2023/12/26 04:59:40;;;;;;;6.07;5.47;;;;;;;;;;5079966;28;20028;-46
2023/12/26 05:02:06;;;;;;;6.47;4.93;;;;;;;;;;5087935;28;20028;-45
2023/12/26 05:04:32;;;;;;;7.15;5.55;;;;;;;;;;5078116;28;20406;-46
2023/12/26 05:06:57;;;;;;;6.13;4.47;;;;;;;;;;5076760;28;20058;-44
2023/12/26 05:09:22;;;;;;;4.97;4.47;;;;;;;;;;5078839;28;20041;-44
2023/12/26 05:11:48;;;;;;;5.00;4.22;;;;;;;;;;5081569;28;20460;-46
2023/12/26 05:14:13;;;;;;;5.90;4.43;;;;;;;;;;5078510;28;20567;-46
2023/12/26 05:16:42;;;;;;;5.95;4.05;;;;;;;;;;5077630;28;20052;-43
2023/12/26 05:19:09;;;;;;;4.38;3.97;;;;;;;;;;5077743;28;20029;-48
2023/12/26 05:21:35;;;;;;;4.60;3.80;;;;;;;;;;5075396;28;20034;-46
2023/12/26 05:24:01;;;;;;;4.63;4.22;;;;;;;;;;5084242;28;20138;-44
2023/12/26 05:26:26;;;;;;;4.70;3.45;;;;;;;;;;5079255;28;20082;-44
2023/12/26 05:28:51;;;;;;;4.28;3.53;;;;;;;;;;5075497;28;20081;-47
2023/12/26 05:31:20;;;;;;;4.10;2.75;;;;;;;;;;5078264;28;20398;-44
2023/12/26 05:33:46;;;;;;;3.85;3.50;;;;;;;;;;5080465;28;20086;-46
2023/12/26 05:36:12;;;;;;;3.95;3.33;;;;;;;;;;5079359;28;20532;-47
2023/12/26 05:38:37;;;;;;;4.05;3.65;;;;;;;;;;5079801;28;20032;-46
2023/12/26 05:41:04;;;;;;;4.35;3.95;;;;;;;;;;5084525;28;20021;-45
2023/12/26 05:43:29;;;;;;;3.63;2.90;;;;;;;;;;5078983;28;20040;-44
2023/12/26 05:45:55;;;;;;;4.18;2.53;;;;;;;;;;5078600;28;20016;-45
2023/12/26 05:48:20;;;;;;;3.17;2.65;;;;;;;;;;5084892;28;20037;-44
2023/12/26 05:50:45;;;;;;;3.97;2.58;;;;;;;;;;5085238;28;20020;-46
2023/12/26 05:53:11;;;;;;;4.57;3.25;;;;;;;;;;5075181;28;20052;-45
2023/12/26 05:55:36;;;;;;;3.92;3.08;;;;;;;;;;5078671;28;20036;-46
2023/12/26 05:58:02;;;;;;;3.60;2.38;;;;;;;;;;5076183;28;20020;-46
2023/12/26 06:00:27;;;;;;;2.35;2.15;;;;;;;;;;5076957;28;20029;-44
2023/12/26 06:02:52;;;;;;;3.95;3.20;;;;;;;;;;5072779;28;20029;-46
2023/12/26 06:05:18;;;;;;;3.20;2.55;;;;;;;;;;5076672;28;20064;-45
2023/12/26 06:07:43;;;;;;;3.65;2.92;;;;;;;;;;5077308;28;20016;-47
2023/12/26 06:10:09;;;;;;;3.30;2.53;;;;;;;;;;5081046;28;20036;-47
2023/12/26 06:12:34;;;;;;;3.90;2.78;;;;;;;;;;5073696;28;20115;-45
2023/12/26 06:14:59;;;;;;;3.30;2.78;;;;;;;;;;5074386;28;20051;-45
2023/12/26 06:17:26;;;;;;;3.15;2.53;;;;;;;;;;5078711;28;20032;-46
2023/12/26 06:19:51;;;;;;;4.43;2.80;;;;;;;;;;5072189;28;20040;-44
2023/12/26 06:22:17;;;;;;;3.42;3.05;;;;;;;;;;5067540;28;20042;-44
2023/12/26 06:24:43;;;;;;;2.42;1.88;;;;;;;;;;5080976;28;20516;-44
2023/12/26 06:27:08;;;;;;;3.25;2.95;;;;;;;;;;5074897;28;20070;-43
2023/12/26 06:29:33;;;;;;;3.45;2.63;;;;;;;;;;5080710;28;20124;-47
2023/12/26 06:31:59;;;;;;;3.80;2.75;;;;;;;;;;5085907;28;20024;-45
2023/12/26 06:34:24;;;;;;;2.90;2.50;;;;;;;;;;5080067;28;20047;-43
2023/12/26 06:36:49;;;;;;;2.40;1.70;;;;;;;;;;5074709;28;20095;-46
2023/12/26 06:39:15;;;;;;;3.08;2.40;;;;;;;;;;5079423;28;20055;-44
2023/12/26 06:41:41;;;;;;;4.25;1.92;;;;;;;;;;5076622;28;20020;-46
2023/12/26 06:44:07;;;;;;;2.67;2.35;;;;;;;;;;5075061;28;20048;-48
2023/12/26 06:46:34;;;;;;;2.72;2.45;;;;;;;;;;5075549;28;20025;-44
2023/12/26 06:48:59;;;;;;;3.20;2.25;;;;;;;;;;5074002;28;20036;-46
2023/12/26 06:51:25;;;;;;;2.47;2.22;;;;;;;;;;5085682;28;20031;-44
2023/12/26 06:53:50;;;;;;;3.50;2.65;;;;;;;;;;5082753;28;20455;-43
2023/12/26 06:56:15;;;;;;;2.88;2.42;;;;;;;;;;5081529;28;20378;-46
2023/12/26 06:58:41;;;;;;;2.88;2.67;;;;;;;;;;5082831;28;20569;-46
2023/12/26 07:01:10;;;;;;;2.63;2.42;;;;;;;;;;5065236;28;20054;-45
2023/12/26 07:03:35;;;;;;;3.30;2.10;;;;;;;;;;5088619;28;20090;-48
2023/12/26 07:06:00;;;;;;;2.47;2.28;;;;;;;;;;5076515;28;20028;-44
2023/12/26 07:08:26;;;;;;;2.67;2.47;;;;;;;;;;5078305;28;20489;-46
2023/12/26 07:10:51;;;;;;;2.25;2.05;;;;;;;;;;5075034;28;20501;-46
2023/12/26 07:13:17;;;;;;;3.00;2.70;;;;;;;;;;5075496;28;20111;-46
2023/12/26 07:15:42;;;;;;;2.88;2.60;;;;;;;;;;5075472;28;20020;-48
2023/12/26 07:18:09;;;;;;;3.45;3.15;;;;;;;;;;5070406;28;20035;-44
2023/12/26 07:20:34;;;;;;;6.47;5.35;;;;;;;;;;5080731;28;20028;-44
2023/12/26 07:23:00;;;;;;;5.53;4.57;;;;;;;;;;5073140;28;20084;-45
2023/12/26 07:25:25;;;;;;;4.80;3.80;;;;;;;;;;5078810;28;20032;-45
2023/12/26 07:27:51;;;;;;;7.80;6.55;;;;;;;;;;5083758;28;20146;-47
2023/12/26 07:30:16;;;;;;;5.93;3.85;;;;;;;;;;5077004;28;20037;-44
2023/12/26 07:32:41;;;;;;;5.68;4.20;;;;;;;;;;5079672;28;20059;-44
2023/12/26 07:35:07;;;;;;;14.15;9.90;;;;;;;;;;5062670;28;20033;-45
2023/12/26 07:37:33;;;;;;;15.40;10.38;;;;;;;;;;5077662;28;20410;-44
2023/12/26 07:39:58;;;;;;;8.35;6.43;;;;;;;;;;5073985;28;20037;-46
2023/12/26 07:42:23;;;;;;;7.40;4.65;;;;;;;;;;5079704;28;20028;-46
2023/12/26 07:44:49;;;;;;;6.43;4.82;;;;;;;;;;5077476;28;20048;-45
2023/12/26 07:47:15;;;;;;;6.60;4.28;;;;;;;;;;5075583;28;20067;-47
2023/12/26 07:49:40;;;;;;;10.55;6.15;;;;;;;;;;5073065;28;20070;-47
2023/12/26 07:52:06;;;;;;;11.02;7.07;;;;;;;;;;5072313;28;20041;-51
2023/12/26 07:54:31;;;;;;;4.70;3.63;;;;;;;;;;5075893;28;20048;-44
2023/12/26 07:56:57;;;;;;;6.35;3.10;;;;;;;;;;5083374;28;20120;-45
2023/12/26 07:59:22;;;;;;;8.23;3.55;;;;;;;;;;5074376;28;20036;-44
2023/12/26 08:01:47;;;;;;;3.33;2.88;;;;;;;;;;5077081;28;20047;-43
2023/12/26 08:04:13;;;;;;;3.45;3.10;;;;;;;;;;5070635;28;20459;-45
2023/12/26 08:06:38;;;;;;;2.40;2.20;;;;;;;;;;5078802;28;20100;-47
2023/12/26 08:09:04;;;;;;;2.53;2.17;;;;;;;;;;5079835;28;20058;-46
2023/12/26 08:11:29;;;;;;;5.22;4.35;;;;;;;;;;5074449;28;20475;-44
2023/12/26 08:13:54;;;;;;;5.00;4.50;;;;;;;;;;5078812;28;20047;-46
2023/12/26 08:16:20;;;;;;;4.13;3.72;;;;;;;;;;5078611;28;20145;-45
2023/12/26 08:18:45;;;;;;;4.55;3.42;;;;;;;;;;5080262;28;20112;-48
2023/12/26 08:21:11;;;;;;;4.47;3.88;;;;;;;;;;5073720;28;20028;-46
2023/12/26 08:23:36;;;;;;;5.18;4.05;;;;;;;;;;5083247;28;20047;-47
2023/12/26 08:26:08;;;;;;;5.75;4.32;;;;;;;;;;5081680;28;20119;-48
2023/12/26 08:28:33;;;;;;;7.40;5.95;;;;;;;;;;5076244;28;20032;-45
2023/12/26 08:31:00;;;;;;;4.85;3.97;;;;;;;;;;5081074;28;20027;-48
2023/12/26 08:33:25;;;;;;;5.40;4.80;;;;;;;;;;5065791;28;20154;-46
2023/12/26 08:35:51;;;;;;;3.33;2.90;;;;;;;;;;5095566;28;20059;-45
2023/12/26 08:38:16;;;;;;;3.33;3.00;;;;;;;;;;5072579;28;20036;-43
2023/12/26 08:40:42;;;;;;;4.82;3.58;;;;;;;;;;5075541;28;20037;-45
2023/12/26 08:43:07;;;;;;;4.38;3.08;;;;;;;;;;5092687;28;20031;-43
2023/12/26 08:45:34;;;;;;;3.60;3.25;;;;;;;;;;5080378;28;20090;-51
2023/12/26 08:47:59;;;;;;;3.50;3.03;;;;;;;;;;5077846;28;20063;-44
2023/12/26 08:50:24;;;;;;;3.25;3.05;;;;;;;;;;5080824;28;20028;-47
2023/12/26 08:52:50;;;;;;;3.97;2.65;;;;;;;;;;5080251;28;20119;-47
2023/12/26 08:55:16;;;;;;;3.67;2.75;;;;;;;;;;5088979;28;20033;-44
2023/12/26 08:57:42;;;;;;;4.47;2.38;;;;;;;;;;5081489;28;20426;-46
2023/12/26 09:00:09;;;;;;;3.95;3.55;;;;;;;;;;5074008;28;20125;-48
2023/12/26 09:02:35;;;;;;;3.42;2.53;;;;;;;;;;5074312;28;20033;-44
2023/12/26 09:05:02;;;;;;;2.97;2.72;;;;;;;;;;5079010;28;20048;-50
2023/12/26 09:07:29;;;;;;;3.30;3.00;;;;;;;;;;5074209;28;20610;-44
2023/12/26 09:09:54;;;;;;;3.17;2.60;;;;;;;;;;5080774;28;20032;-44
2023/12/26 09:12:20;;;;;;;4.13;3.13;;;;;;;;;;5069420;28;20026;-47
2023/12/26 09:14:45;;;;;;;2.88;2.67;;;;;;;;;;5073081;28;20037;-45
2023/12/26 09:17:11;;;;;;;2.15;1.95;;;;;;;;;;5089197;28;20094;-45
2023/12/26 09:19:36;;;;;;;4.00;2.55;;;;;;;;;;5080255;28;20040;-46
2023/12/26 09:22:02;;;;;;;3.38;2.53;;;;;;;;;;5089245;28;20020;-45
2023/12/26 09:24:27;;;;;;;2.88;2.60;;;;;;;;;;5075083;28;20078;-43
2023/12/26 09:26:53;;;;;;;3.25;2.95;;;;;;;;;;5076620;28;20021;-45
2023/12/26 09:29:18;;;;;;;3.60;3.22;;;;;;;;;;5084103;28;20052;-45
2023/12/26 09:31:44;;;;;;;4.30;3.67;;;;;;;;;;5079516;28;20109;-46
2023/12/26 09:34:10;;;;;;;3.42;2.92;;;;;;;;;;5076528;28;20029;-47
2023/12/26 09:36:35;;;;;;;3.97;3.67;;;;;;;;;;5079223;28;20054;-45
2023/12/26 09:39:01;;;;;;;4.63;3.58;;;;;;;;;;5076979;28;20041;-44
2023/12/26 09:41:26;;;;;;;4.30;4.00;;;;;;;;;;5072396;28;20539;-47
2023/12/26 09:43:53;;;;;;;8.55;4.93;;;;;;;;;;5075851;28;20101;-45
2023/12/26 09:46:19;;;;;;;4.68;4.13;;;;;;;;;;5073882;28;20032;-43
2023/12/26 09:48:45;;;;;;;6.47;4.55;;;;;;;;;;5071473;28;20036;-45
2023/12/26 09:51:18;;;;;;;4.45;3.78;;;;;;;;;;5076814;28;20028;-45
2023/12/26 09:53:44;;;;;;;5.57;5.07;;;;;;;;;;5073739;28;20040;-44
2023/12/26 09:56:10;;;;;;;6.25;4.72;;;;;;;;;;5074273;28;20037;-45
2023/12/26 09:58:42;;;;;;;5.55;4.68;;;;;;;;;;5077472;28;20028;-46
2023/12/26 10:01:12;;;;;;;5.45;4.95;;;;;;;;;;5075575;28;20446;-49
2023/12/26 10:03:38;;;;;;;5.70;5.18;;;;;;;;;;5083915;28;20153;-47
2023/12/26 10:06:04;;;;;;;6.00;5.13;;;;;;;;;;5081726;28;20032;-44
2023/12/26 10:08:30;;;;;;;7.22;5.28;;;;;;;;;;5076329;28;20040;-48
2023/12/26 10:10:55;;;;;;;6.47;4.78;;;;;;;;;;5075517;28;20027;-45
2023/12/26 10:13:21;;;;;;;7.90;6.18;;;;;;;;;;5082103;28;20043;-46
2023/12/26 10:15:47;;;;;;;6.63;5.57;;;;;;;;;;5083084;28;20032;-45
2023/12/26 10:18:13;;;;;;;7.65;6.68;;;;;;;;;;5078068;28;20597;-44
2023/12/26 10:20:39;;;;;;;6.32;5.70;;;;;;;;;;5074147;28;20047;-49
2023/12/26 10:23:04;;;;;;;8.00;6.65;;;;;;;;;;5079828;28;20021;-44
2023/12/26 10:25:30;;;;;;;7.90;6.57;;;;;;;;;;5091638;28;20527;-46
2023/12/26 10:27:55;;;;;;;7.93;5.93;;;;;;;;;;5059136;28;20492;-45
2023/12/26 10:30:23;;;;;;;7.70;6.93;;;;;;;;;;5079241;28;20066;-44
2023/12/26 10:33:06;;;;;;;10.27;7.28;;;;;;;;;;5076255;28;20102;-45
2023/12/26 10:35:33;;;;;;;8.27;7.38;;;;;;;;;;5080277;28;20657;-44
2023/12/26 10:37:59;;;;;;;10.88;8.10;;;;;;;;;;5087882;28;20399;-46
2023/12/26 10:40:25;;;;;;;11.63;9.68;;;;;;;;;;5075075;28;20032;-43
2023/12/26 10:42:51;;;;;;;11.05;9.02;;;;;;;;;;5077413;28;20103;-46
2023/12/26 10:45:20;;;;;;;12.27;11.07;;;;;;;;;;5074930;28;20052;-44
2023/12/26 10:47:48;;;;;;;13.82;9.75;;;;;;;;;;5072994;28;20024;-47
2023/12/26 10:50:16;;;;;;;12.57;10.63;;;;;;;;;;5078200;28;20033;-48
2023/12/26 10:53:04;;;;;;;11.45;10.10;;;;;;;;;;5075112;28;20094;-45
2023/12/26 10:55:32;;;;;;;13.13;11.82;;;;;;;;;;5078392;28;20481;-45
2023/12/26 10:58:18;;;;;;;12.65;10.90;;;;;;;;;;5070046;28;20051;-44
2023/12/26 11:01:15;;;;;;;12.27;10.80;;;;;;;;;;5072327;28;20016;-48
2023/12/26 13:51:26;;;;;;;5.97;4.18;;;;;;;;;;5079985;28;20136;-45
2023/12/26 13:53:52;;;;;;;9.10;6.40;;;;;;;;;;5075524;28;20068;-46
2023/12/26 13:56:19;;;;;;;11.52;8.43;;;;;;;;;;5066840;28;20027;-44
2023/12/26 13:58:45;;;;;;;10.40;7.45;;;;;;;;;;5075180;28;20024;-48
2023/12/26 14:01:10;;;;;;;8.65;7.38;;;;;;;;;;5076220;28;20119;-47
2023/12/26 14:03:36;;;;;;;10.18;6.28;;;;;;;;;;5081350;28;20067;-48
2023/12/26 14:06:01;;;;;;;11.10;6.65;;;;;;;;;;5074873;28;20025;-47
2023/12/26 14:08:26;;;;;;;8.40;6.57;;;;;;;;;;5073829;28;20500;-46
2023/12/26 14:10:52;;;;;;;7.97;6.15;;;;;;;;;;5093109;28;20564;-46
2023/12/26 14:13:17;;;;;;;7.63;5.10;;;;;;;;;;5082071;28;20534;-49
2023/12/26 14:15:43;;;;;;;7.63;5.85;;;;;;;;;;5084435;28;20515;-46
2023/12/26 14:18:09;;;;;;;7.30;6.43;;;;;;;;;;5079774;28;20393;-46
2023/12/26 14:20:35;;;;;;;8.23;5.20;;;;;;;;;;5083601;28;20031;-45
2023/12/26 14:23:00;;;;;;;5.68;4.63;;;;;;;;;;5072994;28;20020;-47
2023/12/26 14:25:30;;;;;;;6.72;4.75;;;;;;;;;;5076609;28;20027;-47
2023/12/26 14:27:55;;;;;;;6.13;5.00;;;;;;;;;;5069397;28;20040;-46
2023/12/26 14:30:21;;;;;;;7.55;5.68;;;;;;;;;;5071489;28;20017;-45
2023/12/26 14:32:46;;;;;;;7.80;5.38;;;;;;;;;;5078206;28;20036;-47
2023/12/26 14:35:11;;;;;;;6.38;4.35;;;;;;;;;;5074699;28;20128;-45
2023/12/26 14:37:37;;;;;;;7.85;5.13;;;;;;;;;;5072766;28;20033;-49
2023/12/26 14:40:02;;;;;;;8.20;6.53;;;;;;;;;;5071512;28;20028;-45
2023/12/26 14:42:28;;;;;;;7.05;4.82;;;;;;;;;;5070757;28;20067;-45
2023/12/26 14:44:53;;;;;;;7.07;5.35;;;;;;;;;;5075027;28;20032;-46
2023/12/26 14:47:19;;;;;;;7.68;6.22;;;;;;;;;;5077968;28;20028;-48
2023/12/26 14:49:45;;;;;;;9.93;5.82;;;;;;;;;;5071676;28;20033;-49
2023/12/26 14:52:11;;;;;;;9.85;6.82;;;;;;;;;;5077974;28;20029;-50
2023/12/26 14:54:36;;;;;;;9.15;5.97;;;;;;;;;;5071875;28;20090;-48
2023/12/26 14:57:02;;;;;;;6.95;5.22;;;;;;;;;;5077121;28;20027;-45
2023/12/26 14:59:27;;;;;;;8.05;5.60;;;;;;;;;;5079243;28;20067;-45
2023/12/26 15:01:58;;;;;;;13.07;6.57;;;;;;;;;;5077304;28;20024;-44
2023/12/26 15:04:24;;;;;;;13.52;6.25;;;;;;;;;;5080159;28;20067;-46
2023/12/26 15:06:50;;;;;;;13.00;7.25;;;;;;;;;;5069288;28;20059;-46
2023/12/26 15:09:15;;;;;;;8.40;5.88;;;;;;;;;;5070477;28;20505;-47
2023/12/26 15:11:41;;;;;;;10.48;5.45;;;;;;;;;;5063675;28;20028;-46
2023/12/26 15:14:11;;;;;;;13.23;7.78;;;;;;;;;;5070608;28;20044;-46
2023/12/26 15:16:36;;;;;;;10.35;6.55;;;;;;;;;;5073431;28;20035;-45
2023/12/26 15:19:02;;;;;;;9.75;5.53;;;;;;;;;;5069854;28;20021;-47
2023/12/26 15:21:27;;;;;;;10.55;6.65;;;;;;;;;;5068634;28;20036;-46
2023/12/26 15:23:53;;;;;;;9.68;6.75;;;;;;;;;;5082122;28;20427;-45
2023/12/26 15:26:18;;;;;;;8.95;6.25;;;;;;;;;;5059115;28;20025;-47
2023/12/26 15:28:44;;;;;;;14.27;7.15;;;;;;;;;;5080674;28;20036;-47
2023/12/26 15:31:18;;;;;;;9.18;6.47;;;;;;;;;;5077928;28;20059;-46
2023/12/26 15:33:47;;;;;;;10.32;6.97;;;;;;;;;;5067722;28;20569;-48
2023/12/26 15:36:21;;;;;;;10.05;6.38;;;;;;;;;;5073702;28;20036;-49
2023/12/26 15:38:46;;;;;;;8.15;5.47;;;;;;;;;;5083239;28;20090;-48
2023/12/26 15:41:12;;;;;;;8.40;5.50;;;;;;;;;;5066365;28;20024;-49
2023/12/26 15:43:39;;;;;;;10.52;7.60;;;;;;;;;;5066598;28;20533;-47
2023/12/26 15:46:15;;;;;;;10.25;7.38;;;;;;;;;;5066026;28;20474;-46
2023/12/26 15:48:40;;;;;;;13.70;7.45;;;;;;;;;;5067449;28;20111;-46
2023/12/26 15:51:06;;;;;;;12.05;8.63;;;;;;;;;;5047516;28;20029;-47
2023/12/26 15:53:31;;;;;;;20.38;11.82;;;;;;;;;;5066574;28;20055;-46
2023/12/26 15:55:57;;;;;;;28.33;19.48;;;;;;;;;;5083895;28;20088;-46
2023/12/26 15:58:24;;;;;;;31.52;21.55;;;;;;;;;;5065032;28;20514;-46
2023/12/26 16:00:49;;;;;;;28.00;18.35;;;;;;;;;;5065111;28;20024;-44
2023/12/26 16:03:15;;;;;;;23.90;17.80;;;;;;;;;;5066867;28;20058;-47
2023/12/26 16:05:42;;;;;;;18.42;12.98;;;;;;;;;;5071595;28;20032;-44
2023/12/26 16:08:10;;;;;;;15.65;10.52;;;;;;;;;;5068228;28;20111;-48
2023/12/26 16:10:35;;;;;;;16.95;12.25;;;;;;;;;;5074047;28;20044;-47
2023/12/26 16:13:01;;;;;;;15.32;13.50;;;;;;;;;;5072611;28;20547;-43
2023/12/26 16:15:26;;;;;;;16.77;12.85;;;;;;;;;;5072645;28;20016;-46
2023/12/26 16:17:52;;;;;;;16.75;12.95;;;;;;;;;;5069398;28;20182;-48
2023/12/26 16:20:17;;;;;;;16.70;13.18;;;;;;;;;;5069251;28;20064;-48
2023/12/26 16:22:43;;;;;;;20.63;14.75;;;;;;;;;;5070585;28;20516;-48
2023/12/26 16:25:08;;;;;;;14.80;13.15;;;;;;;;;;5069445;28;20089;-44
2023/12/26 16:27:35;;;;;;;9.90;8.98;;;;;;;;;;5081891;28;20378;-47
2023/12/26 16:30:01;;;;;;;11.25;8.93;;;;;;;;;;5073222;28;20039;-49
2023/12/26 16:32:27;;;;;;;17.23;13.38;;;;;;;;;;5068635;28;20032;-45
2023/12/26 16:34:52;;;;;;;15.80;13.27;;;;;;;;;;5071699;28;20040;-49
2023/12/26 16:37:17;;;;;;;20.83;17.00;;;;;;;;;;5072096;28;20037;-47
2023/12/26 16:39:43;;;;;;;17.25;13.55;;;;;;;;;;5079167;28;20033;-48
2023/12/26 16:42:08;;;;;;;16.55;13.48;;;;;;;;;;5075641;28;20028;-45
2023/12/26 16:44:45;;;;;;;17.27;13.32;;;;;;;;;;5077065;28;20513;-50
2023/12/26 16:47:12;;;;;;;20.80;18.67;;;;;;;;;;5075643;28;20035;-45
2023/12/26 16:49:41;;;;;;;25.50;19.92;;;;;;;;;;5074377;28;20773;-44
2023/12/26 16:52:07;;;;;;;22.17;18.10;;;;;;;;;;5078056;28;20725;-47
2023/12/26 16:54:35;;;;;;;22.90;19.35;;;;;;;;;;5082047;28;20043;-49
2023/12/26 16:57:01;;;;;;;22.05;18.92;;;;;;;;;;5076459;28;20037;-46
2023/12/26 16:59:26;;;;;;;23.25;19.88;;;;;;;;;;5077929;28;20043;-45
2023/12/26 17:01:51;;;;;;;27.48;22.75;;;;;;;;;;5075977;28;20517;-47
2023/12/26 17:04:17;;;;;;;30.85;20.88;;;;;;;;;;5078685;28;20112;-48
2023/12/26 17:06:43;;;;;;;24.65;19.80;;;;;;;;;;5076559;28;21375;-46
2023/12/26 17:09:09;;;;;;;22.40;16.33;;;;;;;;;;5076575;28;20035;-45
2023/12/26 17:11:34;;;;;;;17.13;14.93;;;;;;;;;;5075464;28;20032;-47
2023/12/26 17:14:00;;;;;;;19.48;16.73;;;;;;;;;;5076069;28;20066;-47
2023/12/26 17:16:26;;;;;;;19.33;15.82;;;;;;;;;;5074192;28;20027;-46
2023/12/26 17:18:51;;;;;;;22.98;16.25;;;;;;;;;;5073769;28;20032;-46